Time;durP1;ratioP1;P1;durP2;ratioP2;P2;SDS_P1;SDS_P2;PMS_P1;PMS_P2;Temp;Humidity;BMP_temperature;BMP_pressure;BME280_temperature;BME280_humidity;BME280_pressure;Samples;Min_cycle;Max_cycle;Signal;HPM_P1;HPM_P2
2023/03/25 00:00:16;;;;;;;8.68;1.70;;;;;;;;;;5073710;28;20580;-59
2023/03/25 00:02:47;;;;;;;6.90;1.63;;;;;;;;;;5063758;28;20542;-59
2023/03/25 00:05:14;;;;;;;10.73;2.42;;;;;;;;;;5068143;28;20421;-59
2023/03/25 00:07:41;;;;;;;11.20;1.63;;;;;;;;;;5070641;28;20049;-59
2023/03/25 00:10:08;;;;;;;13.30;2.17;;;;;;;;;;5076175;28;20037;-60
2023/03/25 00:12:34;;;;;;;7.88;1.98;;;;;;;;;;5070729;28;20057;-59
2023/03/25 00:15:01;;;;;;;8.93;1.38;;;;;;;;;;5082668;28;20055;-60
2023/03/25 00:17:29;;;;;;;14.82;2.55;;;;;;;;;;5070184;28;20483;-60
2023/03/25 00:20:01;;;;;;;15.18;2.60;;;;;;;;;;5079405;28;20586;-61
2023/03/25 00:22:27;;;;;;;9.77;2.13;;;;;;;;;;5072491;27;20835;-60
2023/03/25 00:24:54;;;;;;;14.60;2.20;;;;;;;;;;5082971;28;20055;-60
2023/03/25 00:27:20;;;;;;;12.20;2.10;;;;;;;;;;5071053;28;20053;-61
2023/03/25 00:29:46;;;;;;;12.65;2.13;;;;;;;;;;5052016;28;20053;-60
2023/03/25 00:32:14;;;;;;;11.13;1.40;;;;;;;;;;5059015;28;20061;-59
2023/03/25 00:34:40;;;;;;;11.45;1.98;;;;;;;;;;5076807;28;20063;-60
2023/03/25 00:37:08;;;;;;;7.53;2.13;;;;;;;;;;5057471;28;20717;-59
2023/03/25 00:39:35;;;;;;;16.05;2.33;;;;;;;;;;5057137;28;20057;-59
2023/03/25 00:42:02;;;;;;;8.07;2.78;;;;;;;;;;5074656;28;20061;-61
2023/03/25 00:44:29;;;;;;;8.32;1.60;;;;;;;;;;5081217;28;20059;-60
2023/03/25 00:46:55;;;;;;;11.45;2.58;;;;;;;;;;5074164;28;20838;-60
2023/03/25 00:49:27;;;;;;;7.63;1.70;;;;;;;;;;5067673;28;20524;-59
2023/03/25 00:51:55;;;;;;;10.65;3.58;;;;;;;;;;5065009;28;20053;-60
2023/03/25 00:54:22;;;;;;;12.93;2.03;;;;;;;;;;5064102;28;20549;-59
2023/03/25 00:56:49;;;;;;;10.90;1.95;;;;;;;;;;5062650;28;20057;-59
2023/03/25 00:59:15;;;;;;;14.88;2.00;;;;;;;;;;5059421;28;20063;-60
2023/03/25 01:01:42;;;;;;;16.85;2.20;;;;;;;;;;5057575;28;20539;-60
2023/03/25 01:04:11;;;;;;;13.00;2.08;;;;;;;;;;5078275;28;20076;-60
2023/03/25 01:06:42;;;;;;;8.77;1.67;;;;;;;;;;5064091;28;20049;-60
2023/03/25 01:09:12;;;;;;;14.38;2.65;;;;;;;;;;5078031;28;20085;-61
2023/03/25 01:11:39;;;;;;;13.90;2.22;;;;;;;;;;5072400;28;20060;-60
2023/03/25 01:14:07;;;;;;;10.82;1.83;;;;;;;;;;5070162;28;20056;-61
2023/03/25 01:16:33;;;;;;;10.18;3.25;;;;;;;;;;5069810;28;20049;-60
2023/03/25 01:19:00;;;;;;;8.30;2.10;;;;;;;;;;5070519;28;21994;-60
2023/03/25 01:21:26;;;;;;;9.25;2.15;;;;;;;;;;5076493;28;20051;-60
2023/03/25 01:23:52;;;;;;;19.73;2.58;;;;;;;;;;5075579;28;20128;-60
2023/03/25 01:26:19;;;;;;;9.55;2.50;;;;;;;;;;5075984;28;20055;-60
2023/03/25 01:28:45;;;;;;;7.75;1.65;;;;;;;;;;5062555;28;20059;-61
2023/03/25 01:31:12;;;;;;;13.23;2.10;;;;;;;;;;5068727;28;20495;-60
2023/03/25 01:33:39;;;;;;;17.50;2.67;;;;;;;;;;5063545;28;20083;-60
2023/03/25 01:36:08;;;;;;;7.63;1.77;;;;;;;;;;5067855;28;20045;-60
2023/03/25 01:38:35;;;;;;;6.53;1.88;;;;;;;;;;5068461;28;20045;-59
2023/03/25 01:41:03;;;;;;;10.43;1.92;;;;;;;;;;5077666;28;20060;-61
2023/03/25 01:43:30;;;;;;;13.13;3.28;;;;;;;;;;5050553;28;20531;-60
2023/03/25 01:45:57;;;;;;;6.50;2.05;;;;;;;;;;5068349;28;20048;-60
2023/03/25 01:48:26;;;;;;;12.77;2.40;;;;;;;;;;5073564;28;20136;-59
2023/03/25 01:51:00;;;;;;;12.73;2.20;;;;;;;;;;5062800;28;20572;-61
2023/03/25 01:53:28;;;;;;;16.17;2.35;;;;;;;;;;5072498;28;20112;-60
2023/03/25 01:55:55;;;;;;;14.23;2.05;;;;;;;;;;5065402;28;20057;-60
2023/03/25 01:58:22;;;;;;;11.95;1.73;;;;;;;;;;5063742;28;20053;-60
2023/03/25 02:00:49;;;;;;;13.45;2.75;;;;;;;;;;5052638;28;20053;-60
2023/03/25 02:03:19;;;;;;;14.35;2.83;;;;;;;;;;5059391;28;20053;-60
2023/03/25 02:06:04;;;;;;;10.73;2.05;;;;;;;;;;5074561;28;20491;-60
2023/03/25 02:08:32;;;;;;;11.18;2.03;;;;;;;;;;5076198;28;20048;-60
2023/03/25 02:10:58;;;;;;;10.80;2.22;;;;;;;;;;5068786;28;20096;-60
2023/03/25 02:13:24;;;;;;;6.97;2.00;;;;;;;;;;5073767;28;20056;-59
2023/03/25 02:16:05;;;;;;;10.93;2.00;;;;;;;;;;5079010;28;20048;-60
2023/03/25 02:18:44;;;;;;;9.98;2.17;;;;;;;;;;5071606;28;20069;-61
2023/03/25 02:21:16;;;;;;;9.98;1.80;;;;;;;;;;5080617;28;20061;-61
2023/03/25 02:23:56;;;;;;;6.53;2.50;;;;;;;;;;5088993;28;20068;-61
2023/03/25 02:26:41;;;;;;;7.78;1.67;;;;;;;;;;5079051;28;20080;-60
2023/03/25 02:29:17;;;;;;;10.25;2.42;;;;;;;;;;5048453;28;20586;-61
2023/03/25 02:31:44;;;;;;;7.28;1.85;;;;;;;;;;5066307;28;20061;-59
2023/03/25 02:34:22;;;;;;;10.13;2.38;;;;;;;;;;5083878;28;20059;-60
2023/03/25 02:36:59;;;;;;;9.05;1.90;;;;;;;;;;5081690;28;20066;-61
2023/03/25 02:39:44;;;;;;;11.00;2.08;;;;;;;;;;5067699;28;20064;-60
2023/03/25 02:42:23;;;;;;;13.43;2.95;;;;;;;;;;5069473;28;20056;-60
2023/03/25 02:44:49;;;;;;;14.48;2.20;;;;;;;;;;5076542;28;20414;-60
2023/03/25 02:47:17;;;;;;;11.30;2.58;;;;;;;;;;5074391;28;20128;-60
2023/03/25 02:49:46;;;;;;;7.75;1.85;;;;;;;;;;5063700;28;20053;-59
2023/03/25 02:52:18;;;;;;;20.27;2.55;;;;;;;;;;5061580;28;20144;-60
2023/03/25 02:54:46;;;;;;;13.25;2.53;;;;;;;;;;5071110;28;20057;-60
2023/03/25 02:57:14;;;;;;;10.85;1.90;;;;;;;;;;5079345;28;20130;-60
2023/03/25 02:59:41;;;;;;;11.70;2.58;;;;;;;;;;5066272;28;20084;-60
2023/03/25 03:02:09;;;;;;;6.65;2.08;;;;;;;;;;5081553;28;20556;-60
2023/03/25 03:04:45;;;;;;;11.48;2.90;;;;;;;;;;5076893;28;20107;-60
2023/03/25 03:07:15;;;;;;;12.00;2.25;;;;;;;;;;5072051;28;20044;-60
2023/03/25 03:09:44;;;;;;;10.77;2.20;;;;;;;;;;5063234;28;20515;-59
2023/03/25 03:12:16;;;;;;;7.68;2.05;;;;;;;;;;5060370;28;20434;-59
2023/03/25 03:15:00;;;;;;;7.32;1.65;;;;;;;;;;5060920;28;20049;-60
2023/03/25 03:17:33;;;;;;;10.27;2.83;;;;;;;;;;5078630;28;20849;-60
2023/03/25 03:20:17;;;;;;;7.20;2.00;;;;;;;;;;5065466;28;20056;-60
2023/03/25 03:23:05;;;;;;;10.57;3.03;;;;;;;;;;5063083;28;20526;-59
2023/03/25 03:25:36;;;;;;;11.35;2.47;;;;;;;;;;5078669;28;20141;-60
2023/03/25 03:28:05;;;;;;;13.30;2.63;;;;;;;;;;5069316;28;20053;-60
2023/03/25 03:30:37;;;;;;;15.32;2.15;;;;;;;;;;5071019;28;20853;-61
2023/03/25 03:33:08;;;;;;;15.55;3.45;;;;;;;;;;5065362;28;20048;-61
2023/03/25 03:35:38;;;;;;;13.77;2.95;;;;;;;;;;5077752;28;20056;-61
2023/03/25 03:38:08;;;;;;;11.02;2.97;;;;;;;;;;5070800;28;20561;-59
2023/03/25 03:40:35;;;;;;;14.38;3.10;;;;;;;;;;5070562;28;20491;-61
2023/03/25 03:43:06;;;;;;;12.10;2.97;;;;;;;;;;5078573;28;20048;-60
2023/03/25 03:45:36;;;;;;;22.23;5.03;;;;;;;;;;5046851;28;20144;-60
2023/03/25 03:48:06;;;;;;;14.45;3.30;;;;;;;;;;5055048;28;20053;-61
2023/03/25 03:50:37;;;;;;;10.63;3.03;;;;;;;;;;5062386;28;20053;-59
2023/03/25 03:53:24;;;;;;;13.05;2.88;;;;;;;;;;5068815;28;20135;-60
2023/03/25 03:56:05;;;;;;;9.07;2.45;;;;;;;;;;5059823;28;20845;-60
2023/03/25 03:58:33;;;;;;;8.05;2.60;;;;;;;;;;5049217;28;20091;-59
2023/03/25 04:01:09;;;;;;;14.48;3.30;;;;;;;;;;5071287;28;20086;-60
2023/03/25 04:03:41;;;;;;;10.38;2.60;;;;;;;;;;5077459;28;20548;-59
2023/03/25 04:06:28;;;;;;;12.10;2.63;;;;;;;;;;5058354;28;20098;-61
2023/03/25 04:08:57;;;;;;;10.77;3.60;;;;;;;;;;5067454;28;20052;-60
2023/03/25 04:11:35;;;;;;;15.07;2.85;;;;;;;;;;5079476;28;20061;-60
2023/03/25 04:14:02;;;;;;;26.88;3.45;;;;;;;;;;5061790;28;20129;-61
2023/03/25 04:16:31;;;;;;;13.52;3.05;;;;;;;;;;5062461;28;20215;-60
2023/03/25 04:19:02;;;;;;;12.68;2.72;;;;;;;;;;5082447;28;20049;-61
2023/03/25 04:21:28;;;;;;;14.23;2.75;;;;;;;;;;5076660;28;20061;-60
2023/03/25 04:23:55;;;;;;;12.07;2.42;;;;;;;;;;5065574;28;20127;-59
2023/03/25 04:26:21;;;;;;;15.88;2.90;;;;;;;;;;5066685;28;20353;-59
2023/03/25 04:28:47;;;;;;;16.77;2.72;;;;;;;;;;5080779;28;21928;-59
2023/03/25 04:31:15;;;;;;;15.90;3.03;;;;;;;;;;5050014;28;20481;-60
2023/03/25 04:33:45;;;;;;;12.55;2.95;;;;;;;;;;5066467;28;20303;-59
2023/03/25 04:36:12;;;;;;;16.35;3.10;;;;;;;;;;5046535;28;20054;-59
2023/03/25 04:38:39;;;;;;;11.73;3.05;;;;;;;;;;5072569;28;20055;-59
2023/03/25 04:41:06;;;;;;;11.35;2.75;;;;;;;;;;5073440;28;20043;-60
2023/03/25 04:43:33;;;;;;;14.30;2.80;;;;;;;;;;5084223;28;20056;-59
2023/03/25 04:46:01;;;;;;;9.50;2.42;;;;;;;;;;5074019;28;20054;-60
2023/03/25 04:48:32;;;;;;;11.05;2.08;;;;;;;;;;5083465;28;20075;-60
2023/03/25 04:51:00;;;;;;;6.65;1.55;;;;;;;;;;5068301;28;20061;-62
2023/03/25 04:53:26;;;;;;;8.32;1.83;;;;;;;;;;5079885;28;20041;-59
2023/03/25 04:55:53;;;;;;;6.47;1.95;;;;;;;;;;5084224;28;20083;-59
2023/03/25 04:58:20;;;;;;;12.95;2.92;;;;;;;;;;5081846;28;20095;-59
2023/03/25 05:00:50;;;;;;;15.38;4.07;;;;;;;;;;5067685;28;20049;-60
2023/03/25 05:03:22;;;;;;;11.02;3.40;;;;;;;;;;5075822;28;20163;-61
2023/03/25 05:05:50;;;;;;;14.45;3.53;;;;;;;;;;5071095;28;20079;-60
2023/03/25 05:08:17;;;;;;;15.68;2.67;;;;;;;;;;5070476;28;20051;-60
2023/03/25 05:10:43;;;;;;;10.45;4.25;;;;;;;;;;5077232;28;20376;-60
2023/03/25 05:13:09;;;;;;;21.98;3.17;;;;;;;;;;5080648;28;20045;-60
2023/03/25 05:15:39;;;;;;;14.27;3.25;;;;;;;;;;5066051;28;20068;-59
2023/03/25 05:18:08;;;;;;;16.60;3.25;;;;;;;;;;5069878;28;20442;-60
2023/03/25 05:20:36;;;;;;;13.50;3.20;;;;;;;;;;5074602;28;20049;-60
2023/03/25 05:23:03;;;;;;;16.55;4.75;;;;;;;;;;5051409;28;20045;-60
2023/03/25 05:25:33;;;;;;;21.55;3.58;;;;;;;;;;5080916;28;20131;-60
2023/03/25 05:28:04;;;;;;;18.40;2.80;;;;;;;;;;5082305;28;20075;-61
2023/03/25 05:30:31;;;;;;;15.55;3.50;;;;;;;;;;5081356;28;20044;-60
2023/03/25 05:32:58;;;;;;;23.02;3.20;;;;;;;;;;5080264;28;20450;-60
2023/03/25 05:35:25;;;;;;;14.55;2.80;;;;;;;;;;5064008;28;20091;-58
2023/03/25 05:37:52;;;;;;;13.73;3.10;;;;;;;;;;5073468;28;20048;-60
2023/03/25 05:40:18;;;;;;;17.05;2.67;;;;;;;;;;5075016;28;20507;-59
2023/03/25 05:42:45;;;;;;;22.75;3.30;;;;;;;;;;5062676;28;20087;-60
2023/03/25 05:45:12;;;;;;;18.58;3.40;;;;;;;;;;5055318;28;20489;-60
2023/03/25 05:47:39;;;;;;;17.15;2.88;;;;;;;;;;5075982;28;20586;-60
2023/03/25 05:50:07;;;;;;;19.75;3.55;;;;;;;;;;5066033;28;20521;-60
2023/03/25 05:52:33;;;;;;;17.55;3.25;;;;;;;;;;5067305;28;21039;-59
2023/03/25 05:54:59;;;;;;;19.02;3.42;;;;;;;;;;5052484;28;20067;-61
2023/03/25 05:57:25;;;;;;;18.23;3.25;;;;;;;;;;5071580;28;20144;-59
2023/03/25 05:59:52;;;;;;;12.18;2.85;;;;;;;;;;5069069;28;20060;-59
2023/03/25 06:02:19;;;;;;;23.13;3.85;;;;;;;;;;5072397;28;20500;-60
2023/03/25 06:04:46;;;;;;;13.27;3.25;;;;;;;;;;5051895;28;20107;-60
2023/03/25 06:07:18;;;;;;;24.75;4.97;;;;;;;;;;5044968;28;20050;-60
2023/03/25 06:09:45;;;;;;;25.55;4.10;;;;;;;;;;5083229;28;20513;-60
2023/03/25 06:12:12;;;;;;;23.85;4.38;;;;;;;;;;5058351;28;20058;-60
2023/03/25 06:14:41;;;;;;;15.43;3.42;;;;;;;;;;5061198;28;20057;-60
2023/03/25 06:17:09;;;;;;;24.17;3.83;;;;;;;;;;5070065;28;20053;-60
2023/03/25 06:19:39;;;;;;;15.70;2.95;;;;;;;;;;5056182;28;20144;-60
2023/03/25 06:22:08;;;;;;;25.65;3.65;;;;;;;;;;5060617;28;20068;-60
2023/03/25 06:24:38;;;;;;;18.17;3.47;;;;;;;;;;5066512;28;20053;-59
2023/03/25 06:27:05;;;;;;;18.90;3.70;;;;;;;;;;5047527;28;20060;-60
2023/03/25 06:29:33;;;;;;;18.27;4.68;;;;;;;;;;5076202;28;20053;-61
2023/03/25 06:31:59;;;;;;;16.73;3.40;;;;;;;;;;5064414;28;20048;-60
2023/03/25 06:34:25;;;;;;;24.38;3.78;;;;;;;;;;5076524;28;20504;-59
2023/03/25 06:36:53;;;;;;;13.70;3.10;;;;;;;;;;5064907;28;20053;-59
2023/03/25 06:39:19;;;;;;;16.17;3.65;;;;;;;;;;5048837;28;20049;-59
2023/03/25 06:41:46;;;;;;;21.63;2.67;;;;;;;;;;5044260;28;20137;-60
2023/03/25 06:44:12;;;;;;;19.45;3.58;;;;;;;;;;5065719;28;20053;-60
2023/03/25 06:46:39;;;;;;;14.60;3.55;;;;;;;;;;5065198;28;20557;-60
2023/03/25 06:49:05;;;;;;;14.82;2.85;;;;;;;;;;5056900;28;20053;-59
2023/03/25 06:51:32;;;;;;;22.70;3.15;;;;;;;;;;5072487;28;20053;-61
2023/03/25 06:53:58;;;;;;;14.27;3.03;;;;;;;;;;5058891;28;20097;-60
2023/03/25 06:56:24;;;;;;;16.63;3.40;;;;;;;;;;5056851;28;20566;-60
2023/03/25 06:58:51;;;;;;;14.38;3.05;;;;;;;;;;5064056;28;20538;-60
2023/03/25 07:01:17;;;;;;;27.75;3.50;;;;;;;;;;5066990;28;20886;-60
2023/03/25 07:03:44;;;;;;;15.20;2.72;;;;;;;;;;5047375;28;20110;-60
2023/03/25 07:06:15;;;;;;;18.80;2.45;;;;;;;;;;5067198;28;20089;-61
2023/03/25 07:08:42;;;;;;;19.83;3.90;;;;;;;;;;5048666;28;20062;-60
2023/03/25 07:11:09;;;;;;;24.33;4.00;;;;;;;;;;5053707;28;20045;-60
2023/03/25 07:13:36;;;;;;;17.63;3.40;;;;;;;;;;5084016;28;20570;-59
2023/03/25 07:16:02;;;;;;;16.85;3.33;;;;;;;;;;5082847;28;20499;-59
2023/03/25 07:18:29;;;;;;;20.83;3.08;;;;;;;;;;5060189;28;20045;-61
2023/03/25 07:20:56;;;;;;;14.10;2.72;;;;;;;;;;5046952;28;20053;-60
2023/03/25 07:23:22;;;;;;;13.68;3.05;;;;;;;;;;5075258;28;20114;-60
2023/03/25 07:25:49;;;;;;;11.90;2.75;;;;;;;;;;5078893;28;20559;-59
2023/03/25 07:28:16;;;;;;;17.95;2.83;;;;;;;;;;5066639;28;20048;-60
2023/03/25 07:30:43;;;;;;;17.92;2.70;;;;;;;;;;5066598;28;20085;-59
2023/03/25 07:33:10;;;;;;;18.38;3.38;;;;;;;;;;5060625;28;20103;-60
2023/03/25 07:35:37;;;;;;;29.00;3.47;;;;;;;;;;5064921;28;20573;-59
2023/03/25 07:38:03;;;;;;;26.35;4.55;;;;;;;;;;5063850;28;20049;-60
2023/03/25 07:40:30;;;;;;;18.52;3.50;;;;;;;;;;5063724;28;20060;-59
2023/03/25 07:42:56;;;;;;;18.65;3.13;;;;;;;;;;5066344;28;20064;-59
2023/03/25 07:45:24;;;;;;;14.82;2.67;;;;;;;;;;5066048;28;20513;-60
2023/03/25 07:47:51;;;;;;;26.33;4.38;;;;;;;;;;5066166;28;20053;-60
2023/03/25 07:50:19;;;;;;;21.00;3.35;;;;;;;;;;5055229;28;20064;-60
2023/03/25 07:52:48;;;;;;;18.95;3.00;;;;;;;;;;5056687;28;20412;-61
2023/03/25 07:55:16;;;;;;;15.65;3.60;;;;;;;;;;5052033;28;20049;-61
2023/03/25 07:57:42;;;;;;;17.15;2.88;;;;;;;;;;5050070;28;20109;-60
2023/03/25 08:00:10;;;;;;;24.20;3.53;;;;;;;;;;5062291;28;20133;-60
2023/03/25 08:02:36;;;;;;;23.02;3.33;;;;;;;;;;5062725;28;20515;-61
2023/03/25 08:05:04;;;;;;;18.98;3.88;;;;;;;;;;5064748;28;20053;-60
2023/03/25 08:07:31;;;;;;;12.23;2.92;;;;;;;;;;5063355;28;20553;-61
2023/03/25 08:09:58;;;;;;;13.60;3.63;;;;;;;;;;5080308;28;20053;-60
2023/03/25 08:12:24;;;;;;;14.30;3.00;;;;;;;;;;5057230;28;20490;-59
2023/03/25 08:14:51;;;;;;;23.67;4.60;;;;;;;;;;5065119;28;20056;-60
2023/03/25 08:17:17;;;;;;;13.95;2.83;;;;;;;;;;5066696;28;20076;-61
2023/03/25 08:19:44;;;;;;;23.15;3.00;;;;;;;;;;5066343;28;20141;-59
2023/03/25 08:22:10;;;;;;;23.77;4.03;;;;;;;;;;5069409;28;20577;-60
2023/03/25 08:24:37;;;;;;;19.63;4.15;;;;;;;;;;5072597;28;20584;-60
2023/03/25 08:27:03;;;;;;;18.17;3.00;;;;;;;;;;5084254;28;20057;-60
2023/03/25 08:29:42;;;;;;;18.02;2.95;;;;;;;;;;5086508;28;20125;-60
2023/03/25 08:32:08;;;;;;;12.75;2.65;;;;;;;;;;5069589;28;20056;-60
2023/03/25 08:34:38;;;;;;;19.63;3.22;;;;;;;;;;5067641;28;20080;-61
2023/03/25 08:37:06;;;;;;;25.27;4.07;;;;;;;;;;5086345;28;20056;-61
2023/03/25 08:39:38;;;;;;;19.58;3.60;;;;;;;;;;5078721;28;20049;-60
2023/03/25 08:42:05;;;;;;;27.10;4.05;;;;;;;;;;5069834;28;20110;-61
2023/03/25 08:44:32;;;;;;;21.42;3.95;;;;;;;;;;5072855;28;20051;-60
2023/03/25 08:46:58;;;;;;;21.75;3.53;;;;;;;;;;5066072;28;20107;-61
2023/03/25 08:49:25;;;;;;;15.50;3.30;;;;;;;;;;5065343;28;20135;-61
2023/03/25 08:51:52;;;;;;;21.02;3.83;;;;;;;;;;5045474;28;20530;-61
2023/03/25 08:54:18;;;;;;;26.40;4.53;;;;;;;;;;5045155;28;20107;-62
2023/03/25 08:56:45;;;;;;;27.45;5.28;;;;;;;;;;5046082;28;20220;-61
2023/03/25 08:59:11;;;;;;;23.38;3.30;;;;;;;;;;5051605;28;20144;-60
2023/03/25 09:01:38;;;;;;;17.88;3.10;;;;;;;;;;5064499;28;20530;-60
2023/03/25 09:04:05;;;;;;;17.83;2.95;;;;;;;;;;5063365;28;20056;-61
2023/03/25 09:06:32;;;;;;;17.75;3.75;;;;;;;;;;5066017;28;20053;-60
2023/03/25 09:09:14;;;;;;;21.75;3.83;;;;;;;;;;5063317;28;20053;-60
2023/03/25 09:11:40;;;;;;;19.20;3.47;;;;;;;;;;5065354;28;20589;-61
2023/03/25 09:14:07;;;;;;;18.98;3.45;;;;;;;;;;5057281;28;20080;-60
2023/03/25 09:16:34;;;;;;;22.50;3.15;;;;;;;;;;5059667;28;20049;-61
2023/03/25 09:19:01;;;;;;;20.45;3.25;;;;;;;;;;5064473;28;20045;-61
2023/03/25 09:21:27;;;;;;;24.48;3.72;;;;;;;;;;5065741;28;20092;-61
2023/03/25 09:23:54;;;;;;;18.02;3.20;;;;;;;;;;5065947;28;20577;-60
2023/03/25 09:26:20;;;;;;;21.48;3.63;;;;;;;;;;5064498;28;20496;-62
2023/03/25 09:28:47;;;;;;;14.05;4.10;;;;;;;;;;5046609;28;20081;-61
2023/03/25 09:31:14;;;;;;;20.88;3.50;;;;;;;;;;5045101;28;20516;-61
2023/03/25 09:33:40;;;;;;;20.48;3.40;;;;;;;;;;5045153;28;20056;-62
2023/03/25 09:36:07;;;;;;;19.40;3.17;;;;;;;;;;5045079;28;20554;-61
2023/03/25 09:38:33;;;;;;;18.23;3.55;;;;;;;;;;5050738;28;20072;-61
2023/03/25 09:41:03;;;;;;;22.60;3.35;;;;;;;;;;5073232;28;20087;-61
2023/03/25 09:43:39;;;;;;;15.93;3.00;;;;;;;;;;5085561;28;20523;-60
2023/03/25 09:46:06;;;;;;;18.20;2.95;;;;;;;;;;5067540;28;20057;-60
2023/03/25 09:48:37;;;;;;;21.55;2.90;;;;;;;;;;5065353;28;20164;-60
2023/03/25 09:51:26;;;;;;;23.95;3.00;;;;;;;;;;5045473;28;20049;-61
2023/03/25 09:53:56;;;;;;;19.23;2.90;;;;;;;;;;5036528;28;20057;-60
2023/03/25 09:56:24;;;;;;;12.32;3.25;;;;;;;;;;5047526;28;20564;-60
2023/03/25 09:58:53;;;;;;;19.27;3.20;;;;;;;;;;5064737;28;20045;-59
2023/03/25 10:01:22;;;;;;;16.95;3.42;;;;;;;;;;5044146;28;20104;-60
2023/03/25 10:04:12;;;;;;;27.25;4.40;;;;;;;;;;5055922;28;20510;-60
2023/03/25 10:06:47;;;;;;;18.77;3.70;;;;;;;;;;5064512;28;20053;-60
2023/03/25 10:09:16;;;;;;;14.43;3.00;;;;;;;;;;5065296;28;20132;-59
2023/03/25 10:11:54;;;;;;;18.08;3.33;;;;;;;;;;5064560;28;20057;-59
2023/03/25 10:14:25;;;;;;;11.38;2.40;;;;;;;;;;5064041;28;20053;-59
2023/03/25 10:17:11;;;;;;;12.82;2.42;;;;;;;;;;5062105;28;20713;-59
2023/03/25 10:20:03;;;;;;;16.30;3.38;;;;;;;;;;5041840;28;20055;-60
2023/03/25 10:22:39;;;;;;;9.65;2.45;;;;;;;;;;5067771;28;20049;-60
2023/03/25 10:25:05;;;;;;;;;;;;;;;;;;5061939;28;20049;-59
2023/03/25 10:27:46;;;;;;;21.75;3.38;;;;;;;;;;5068153;28;43958;-61
2023/03/25 10:30:13;;;;;;;24.42;3.35;;;;;;;;;;5068290;28;20056;-59
2023/03/25 10:32:42;;;;;;;18.15;5.03;;;;;;;;;;5067747;28;20069;-60
2023/03/25 10:35:11;;;;;;;15.82;3.00;;;;;;;;;;5066106;28;21280;-60
2023/03/25 10:37:40;;;;;;;15.65;2.65;;;;;;;;;;5070990;28;20144;-60
2023/03/25 10:40:17;;;;;;;23.95;4.13;;;;;;;;;;5067791;28;20056;-60
2023/03/25 10:42:54;;;;;;;15.45;2.80;;;;;;;;;;5076181;28;20056;-60
2023/03/25 10:45:21;;;;;;;18.27;3.60;;;;;;;;;;5071208;28;20056;-60
2023/03/25 10:47:48;;;;;;;11.07;2.47;;;;;;;;;;5067338;28;20045;-60
2023/03/25 10:50:15;;;;;;;14.93;3.60;;;;;;;;;;5067483;28;20624;-61
2023/03/25 10:52:42;;;;;;;14.48;3.20;;;;;;;;;;5068902;28;20077;-60
2023/03/25 10:55:22;;;;;;;17.05;3.88;;;;;;;;;;5067404;28;21033;-60
2023/03/25 10:57:49;;;;;;;17.60;2.88;;;;;;;;;;5075831;28;20494;-61
2023/03/25 11:00:21;;;;;;;17.25;2.75;;;;;;;;;;5080211;28;20541;-60
2023/03/25 11:02:48;;;;;;;14.18;2.40;;;;;;;;;;5067101;28;20510;-61
2023/03/25 11:05:17;;;;;;;18.25;2.90;;;;;;;;;;5067253;28;20053;-60
2023/03/25 11:07:49;;;;;;;10.43;2.42;;;;;;;;;;5067166;28;20049;-61
2023/03/25 11:10:22;;;;;;;11.35;2.70;;;;;;;;;;5066423;28;20076;-61
2023/03/25 11:12:52;;;;;;;16.50;2.55;;;;;;;;;;5066984;28;20056;-61
2023/03/25 11:15:23;;;;;;;15.63;2.67;;;;;;;;;;5066812;28;20053;-59
2023/03/25 11:17:58;;;;;;;14.68;2.75;;;;;;;;;;5050382;28;20048;-60
2023/03/25 11:20:26;;;;;;;10.20;2.63;;;;;;;;;;5067158;28;20041;-60
2023/03/25 11:22:53;;;;;;;9.38;2.22;;;;;;;;;;5067837;28;20055;-59
2023/03/25 11:25:29;;;;;;;17.42;2.97;;;;;;;;;;5066934;28;20073;-60
2023/03/25 11:27:57;;;;;;;14.73;2.25;;;;;;;;;;5051023;28;20077;-60
2023/03/25 11:30:24;;;;;;;15.98;2.78;;;;;;;;;;5065869;28;21042;-59
2023/03/25 11:33:14;;;;;;;12.70;2.25;;;;;;;;;;5065930;28;20134;-60
2023/03/25 11:35:42;;;;;;;14.35;2.55;;;;;;;;;;5057096;28;20550;-61
2023/03/25 11:38:13;;;;;;;8.38;1.92;;;;;;;;;;5062025;28;20889;-60
2023/03/25 11:40:49;;;;;;;10.20;2.00;;;;;;;;;;5066502;28;20049;-59
2023/03/25 11:43:19;;;;;;;17.98;2.75;;;;;;;;;;5069088;28;20055;-59
2023/03/25 11:45:45;;;;;;;13.98;2.40;;;;;;;;;;5069213;28;20565;-59
2023/03/25 11:48:16;;;;;;;17.92;2.70;;;;;;;;;;5065320;28;20077;-62
2023/03/25 11:50:51;;;;;;;8.35;2.13;;;;;;;;;;5072999;28;20528;-60
2023/03/25 11:53:18;;;;;;;10.75;2.70;;;;;;;;;;5078840;28;20066;-61
2023/03/25 11:55:45;;;;;;;8.77;1.95;;;;;;;;;;5066769;28;20080;-60
2023/03/25 11:58:16;;;;;;;12.30;2.95;;;;;;;;;;5066144;28;20827;-60
2023/03/25 12:00:46;;;;;;;12.35;2.28;;;;;;;;;;5066158;28;20502;-61
2023/03/25 12:03:13;;;;;;;11.50;2.55;;;;;;;;;;5065894;28;20056;-59
2023/03/25 12:05:40;;;;;;;12.20;2.58;;;;;;;;;;5066625;28;20128;-60
2023/03/25 12:08:15;;;;;;;11.05;2.22;;;;;;;;;;5066668;28;20064;-60
2023/03/25 12:10:56;;;;;;;10.52;1.95;;;;;;;;;;5083511;28;20079;-60
2023/03/25 12:13:22;;;;;;;13.07;3.13;;;;;;;;;;5068179;28;20536;-60
2023/03/25 12:15:57;;;;;;;11.30;2.17;;;;;;;;;;5055130;28;20052;-59
2023/03/25 12:18:24;;;;;;;;;;;;;;;;;;5060903;28;20519;-62
2023/03/25 12:21:02;;;;;;;6.70;2.15;;;;;;;;;;5065545;28;43874;-59
2023/03/25 12:23:32;;;;;;;10.68;1.90;;;;;;;;;;5066413;28;20718;-60
2023/03/25 12:25:58;;;;;;;6.25;2.13;;;;;;;;;;5065970;28;20573;-59
2023/03/25 12:28:47;;;;;;;9.68;2.33;;;;;;;;;;5066345;28;20131;-60
2023/03/25 12:31:22;;;;;;;19.58;2.90;;;;;;;;;;5064741;28;20075;-60
2023/03/25 12:34:14;;;;;;;13.23;1.60;;;;;;;;;;5065863;28;20052;-60
2023/03/25 12:36:56;;;;;;;9.13;2.60;;;;;;;;;;5050231;28;20060;-60
2023/03/25 12:39:37;;;;;;;8.20;1.60;;;;;;;;;;5067238;28;20464;-60
2023/03/25 12:42:12;;;;;;;13.73;2.03;;;;;;;;;;5065707;28;20049;-59
2023/03/25 12:44:56;;;;;;;13.75;1.80;;;;;;;;;;5060638;28;20509;-61
2023/03/25 12:47:27;;;;;;;15.00;2.40;;;;;;;;;;5064533;28;20134;-62
2023/03/25 12:50:12;;;;;;;10.35;2.15;;;;;;;;;;5082375;28;20593;-61
2023/03/25 12:52:38;;;;;;;9.88;2.28;;;;;;;;;;5085892;28;20049;-62
2023/03/25 12:55:08;;;;;;;10.38;2.42;;;;;;;;;;5079327;28;20053;-61
2023/03/25 12:57:42;;;;;;;12.77;2.45;;;;;;;;;;5078537;28;20060;-61
2023/03/25 13:00:13;;;;;;;6.03;1.95;;;;;;;;;;5085213;28;20511;-61
2023/03/25 13:02:51;;;;;;;12.98;2.63;;;;;;;;;;5085774;28;20057;-61
2023/03/25 13:05:22;;;;;;;7.60;1.95;;;;;;;;;;5075690;28;20094;-61
2023/03/25 13:07:52;;;;;;;5.68;2.10;;;;;;;;;;5086342;28;20084;-61
2023/03/25 13:10:20;;;;;;;8.13;2.05;;;;;;;;;;5080546;28;20503;-60
2023/03/25 13:12:49;;;;;;;13.82;3.00;;;;;;;;;;5077172;28;20072;-61
2023/03/25 13:15:22;;;;;;;15.20;2.47;;;;;;;;;;5065350;28;20557;-60
2023/03/25 13:17:58;;;;;;;11.25;2.90;;;;;;;;;;5071374;28;20061;-60
2023/03/25 13:20:26;;;;;;;11.50;2.28;;;;;;;;;;5066872;28;20055;-60
2023/03/25 13:23:00;;;;;;;12.80;2.53;;;;;;;;;;5070718;28;20049;-60
2023/03/25 13:25:30;;;;;;;15.27;2.47;;;;;;;;;;5081197;28;20046;-60
2023/03/25 13:28:00;;;;;;;7.80;2.10;;;;;;;;;;5081712;28;20045;-59
2023/03/25 13:30:30;;;;;;;13.40;2.90;;;;;;;;;;5079911;28;20506;-61
2023/03/25 13:33:02;;;;;;;12.95;2.53;;;;;;;;;;5084189;28;20048;-60
2023/03/25 13:35:34;;;;;;;10.20;2.10;;;;;;;;;;5065835;28;20568;-61
2023/03/25 13:38:03;;;;;;;8.27;2.08;;;;;;;;;;5080645;28;20127;-59
2023/03/25 13:40:39;;;;;;;15.98;2.60;;;;;;;;;;5069599;28;20426;-60
2023/03/25 13:43:09;;;;;;;15.85;2.45;;;;;;;;;;5063050;28;20049;-60
2023/03/25 13:45:48;;;;;;;8.30;2.25;;;;;;;;;;5074396;28;20081;-60
2023/03/25 13:48:22;;;;;;;9.15;2.15;;;;;;;;;;5074041;28;20926;-60
2023/03/25 13:50:48;;;;;;;10.75;1.77;;;;;;;;;;5081302;28;20048;-60
2023/03/25 13:53:19;;;;;;;9.73;1.85;;;;;;;;;;5085389;28;20471;-59
2023/03/25 13:56:01;;;;;;;14.82;2.60;;;;;;;;;;5074346;28;20053;-60
2023/03/25 13:58:35;;;;;;;8.43;1.77;;;;;;;;;;5069302;28;20055;-59
2023/03/25 14:01:11;;;;;;;9.27;1.95;;;;;;;;;;5067552;28;20597;-60
2023/03/25 14:03:37;;;;;;;12.30;1.67;;;;;;;;;;5066749;28;20057;-60
2023/03/25 14:06:16;;;;;;;5.15;1.15;;;;;;;;;;5065697;28;20494;-60
2023/03/25 14:09:01;;;;;;;7.20;1.42;;;;;;;;;;5057860;28;20046;-61
2023/03/25 14:11:37;;;;;;;6.78;0.98;;;;;;;;;;5053217;28;20434;-59
2023/03/25 14:14:10;;;;;;;6.22;1.30;;;;;;;;;;5049078;28;20064;-60
2023/03/25 14:16:43;;;;;;;9.70;1.20;;;;;;;;;;5068062;28;20102;-59
2023/03/25 14:19:13;;;;;;;6.75;1.23;;;;;;;;;;5068617;28;20048;-58
2023/03/25 14:21:42;;;;;;;4.00;1.38;;;;;;;;;;5068215;28;20064;-59
2023/03/25 14:24:08;;;;;;;7.63;1.45;;;;;;;;;;5068187;28;20057;-60
2023/03/25 14:26:36;;;;;;;9.63;1.58;;;;;;;;;;5068199;28;20103;-59
2023/03/25 14:29:26;;;;;;;8.35;1.33;;;;;;;;;;5067455;28;20115;-60
2023/03/25 14:32:00;;;;;;;7.82;1.63;;;;;;;;;;5062479;28;20060;-60
2023/03/25 14:34:26;;;;;;;10.75;1.40;;;;;;;;;;5066445;28;20909;-59
2023/03/25 14:36:54;;;;;;;7.90;1.83;;;;;;;;;;5068523;28;20092;-59
2023/03/25 14:39:23;;;;;;;12.13;2.42;;;;;;;;;;5067739;28;20049;-59
2023/03/25 14:42:12;;;;;;;8.80;2.20;;;;;;;;;;5067687;28;20053;-59
2023/03/25 14:44:40;;;;;;;14.32;3.08;;;;;;;;;;5067289;28;20127;-59
2023/03/25 14:47:16;;;;;;;10.85;1.73;;;;;;;;;;5066778;28;20061;-60
2023/03/25 14:49:49;;;;;;;13.02;2.42;;;;;;;;;;5059187;28;20049;-60